sensor_id;sensor_type;location;lat;lon;timestamp;pressure;altitude;pressure_sealevel;temperature;humidity
10064;BME280;5071;52.360;13.134;2022-09-09T00:04:26;100617.56;;;12.90;100.00
10064;BME280;5071;52.360;13.134;2022-09-09T00:09:35;100626.50;;;12.86;100.00
10064;BME280;5071;52.360;13.134;2022-09-09T00:14:47;100620.53;;;12.76;100.00
10064;BME280;5071;52.360;13.134;2022-09-09T00:19:53;100610.78;;;12.76;100.00
10064;BME280;5071;52.360;13.134;2022-09-09T00:25:03;100618.03;;;12.68;100.00
10064;BME280;5071;52.360;13.134;2022-09-09T00:30:16;100611.31;;;12.52;100.00
10064;BME280;5071;52.360;13.134;2022-09-09T00:35:23;100606.09;;;12.47;100.00
10064;BME280;5071;52.360;13.134;2022-09-09T00:40:32;100607.72;;;12.54;100.00
10064;BME280;5071;52.360;13.134;2022-09-09T00:45:54;100606.28;;;12.39;100.00
10064;BME280;5071;52.360;13.134;2022-09-09T00:51:07;100602.84;;;12.34;100.00
10064;BME280;5071;52.360;13.134;2022-09-09T00:56:16;100611.41;;;12.49;100.00
10064;BME280;5071;52.360;13.134;2022-09-09T01:01:20;100614.03;;;12.50;100.00
10064;BME280;5071;52.360;13.134;2022-09-09T01:06:27;100617.72;;;12.43;100.00
10064;BME280;5071;52.360;13.134;2022-09-09T01:11:37;100608.00;;;12.40;100.00
10064;BME280;5071;52.360;13.134;2022-09-09T01:16:45;100612.59;;;12.35;100.00
10064;BME280;5071;52.360;13.134;2022-09-09T01:21:53;100604.53;;;12.37;100.00
10064;BME280;5071;52.360;13.134;2022-09-09T01:27:00;100612.97;;;12.57;100.00
10064;BME280;5071;52.360;13.134;2022-09-09T01:32:37;100613.97;;;12.52;100.00
10064;BME280;5071;52.360;13.134;2022-09-09T01:37:41;100612.22;;;12.52;100.00
10064;BME280;5071;52.360;13.134;2022-09-09T01:42:42;100614.41;;;12.33;100.00
10064;BME280;5071;52.360;13.134;2022-09-09T01:47:45;100618.19;;;12.21;100.00
10064;BME280;5071;52.360;13.134;2022-09-09T01:52:52;100614.75;;;12.16;100.00
10064;BME280;5071;52.360;13.134;2022-09-09T01:58:06;100616.63;;;12.11;100.00
10064;BME280;5071;52.360;13.134;2022-09-09T02:03:20;100616.56;;;12.14;100.00
10064;BME280;5071;52.360;13.134;2022-09-09T02:08:34;100615.63;;;12.17;100.00
10064;BME280;5071;52.360;13.134;2022-09-09T02:13:41;100610.16;;;12.23;100.00
10064;BME280;5071;52.360;13.134;2022-09-09T02:18:48;100620.81;;;12.23;100.00
10064;BME280;5071;52.360;13.134;2022-09-09T02:23:56;100621.94;;;12.13;100.00
10064;BME280;5071;52.360;13.134;2022-09-09T02:29:03;100610.69;;;11.98;100.00
10064;BME280;5071;52.360;13.134;2022-09-09T02:34:08;100610.56;;;12.04;100.00
10064;BME280;5071;52.360;13.134;2022-09-09T02:39:13;100613.34;;;11.98;100.00
10064;BME280;5071;52.360;13.134;2022-09-09T02:44:17;100619.28;;;12.13;100.00
10064;BME280;5071;52.360;13.134;2022-09-09T02:49:25;100610.22;;;12.20;100.00
10064;BME280;5071;52.360;13.134;2022-09-09T02:54:33;100619.19;;;12.16;100.00
10064;BME280;5071;52.360;13.134;2022-09-09T02:59:35;100624.41;;;12.22;100.00
10064;BME280;5071;52.360;13.134;2022-09-09T03:04:37;100622.81;;;12.13;100.00
10064;BME280;5071;52.360;13.134;2022-09-09T03:09:40;100621.69;;;12.23;100.00
10064;BME280;5071;52.360;13.134;2022-09-09T03:14:42;100627.16;;;12.16;100.00
10064;BME280;5071;52.360;13.134;2022-09-09T03:19:44;100638.84;;;12.09;100.00
10064;BME280;5071;52.360;13.134;2022-09-09T03:24:47;100647.69;;;12.11;100.00
10064;BME280;5071;52.360;13.134;2022-09-09T03:29:49;100644.09;;;12.12;100.00
10064;BME280;5071;52.360;13.134;2022-09-09T03:34:51;100643.66;;;11.90;100.00
10064;BME280;5071;52.360;13.134;2022-09-09T03:39:55;100644.56;;;11.87;100.00
10064;BME280;5071;52.360;13.134;2022-09-09T03:44:57;100641.25;;;11.76;100.00
10064;BME280;5071;52.360;13.134;2022-09-09T03:49:59;100636.91;;;11.70;100.00
10064;BME280;5071;52.360;13.134;2022-09-09T03:55:03;100640.28;;;11.78;100.00
10064;BME280;5071;52.360;13.134;2022-09-09T04:00:07;100636.69;;;11.82;100.00
10064;BME280;5071;52.360;13.134;2022-09-09T04:05:09;100648.50;;;11.67;100.00
10064;BME280;5071;52.360;13.134;2022-09-09T04:10:12;100645.16;;;11.56;100.00
10064;BME280;5071;52.360;13.134;2022-09-09T04:15:15;100645.22;;;11.52;100.00
10064;BME280;5071;52.360;13.134;2022-09-09T04:20:16;100652.81;;;11.73;100.00
10064;BME280;5071;52.360;13.134;2022-09-09T04:25:20;100651.06;;;11.72;100.00
10064;BME280;5071;52.360;13.134;2022-09-09T04:30:23;100661.47;;;11.84;100.00
10064;BME280;5071;52.360;13.134;2022-09-09T04:35:25;100664.94;;;11.90;100.00
10064;BME280;5071;52.360;13.134;2022-09-09T04:40:28;100662.06;;;12.00;100.00
10064;BME280;5071;52.360;13.134;2022-09-09T04:45:30;100659.41;;;12.00;100.00
10064;BME280;5071;52.360;13.134;2022-09-09T04:50:32;100664.38;;;12.19;100.00
10064;BME280;5071;52.360;13.134;2022-09-09T04:55:35;100664.31;;;12.22;100.00
10064;BME280;5071;52.360;13.134;2022-09-09T05:00:37;100662.53;;;12.22;100.00
10064;BME280;5071;52.360;13.134;2022-09-09T05:05:39;100667.75;;;12.25;100.00
10064;BME280;5071;52.360;13.134;2022-09-09T05:10:42;100662.31;;;12.33;100.00
10064;BME280;5071;52.360;13.134;2022-09-09T05:15:51;100668.41;;;12.38;100.00
10064;BME280;5071;52.360;13.134;2022-09-09T05:20:58;100662.09;;;12.42;100.00
10064;BME280;5071;52.360;13.134;2022-09-09T05:26:02;100669.16;;;12.45;100.00
10064;BME280;5071;52.360;13.134;2022-09-09T05:31:05;100663.97;;;12.78;100.00
10064;BME280;5071;52.360;13.134;2022-09-09T05:36:09;100674.94;;;13.42;100.00
10064;BME280;5071;52.360;13.134;2022-09-09T05:41:13;100676.03;;;14.02;100.00
10064;BME280;5071;52.360;13.134;2022-09-09T05:46:17;100667.69;;;14.44;100.00
10064;BME280;5071;52.360;13.134;2022-09-09T05:51:21;100684.38;;;15.92;100.00
10064;BME280;5071;52.360;13.134;2022-09-09T05:56:26;100684.75;;;15.28;95.28
10064;BME280;5071;52.360;13.134;2022-09-09T06:01:30;100686.63;;;14.36;94.45
10064;BME280;5071;52.360;13.134;2022-09-09T06:06:34;100698.81;;;14.14;94.87
10064;BME280;5071;52.360;13.134;2022-09-09T06:11:39;100706.47;;;13.95;96.16
10064;BME280;5071;52.360;13.134;2022-09-09T06:16:41;100707.81;;;13.77;97.30
10064;BME280;5071;52.360;13.134;2022-09-09T06:21:43;100723.41;;;13.92;97.20
10064;BME280;5071;52.360;13.134;2022-09-09T06:26:46;100719.78;;;13.96;97.63
10064;BME280;5071;52.360;13.134;2022-09-09T06:31:48;100709.50;;;14.14;97.20
10064;BME280;5071;52.360;13.134;2022-09-09T06:36:50;100711.03;;;14.23;96.53
10064;BME280;5071;52.360;13.134;2022-09-09T06:41:54;100706.31;;;14.32;96.74
10064;BME280;5071;52.360;13.134;2022-09-09T06:46:55;100713.06;;;14.46;95.69
10064;BME280;5071;52.360;13.134;2022-09-09T06:51:57;100710.59;;;14.69;95.86
10064;BME280;5071;52.360;13.134;2022-09-09T06:57:00;100709.97;;;14.91;94.77
10064;BME280;5071;52.360;13.134;2022-09-09T07:02:21;100709.63;;;15.30;94.15
10064;BME280;5071;52.360;13.134;2022-09-09T07:07:24;100708.34;;;15.68;91.73
10064;BME280;5071;52.360;13.134;2022-09-09T07:12:27;100711.31;;;16.36;92.20
10064;BME280;5071;52.360;13.134;2022-09-09T07:17:28;100705.91;;;17.08;88.00
10064;BME280;5071;52.360;13.134;2022-09-09T07:22:30;100710.59;;;17.25;83.70
10064;BME280;5071;52.360;13.134;2022-09-09T07:27:33;100718.13;;;17.60;84.53
10064;BME280;5071;52.360;13.134;2022-09-09T07:32:35;100728.16;;;17.55;83.62
10064;BME280;5071;52.360;13.134;2022-09-09T07:37:37;100719.75;;;17.64;84.75
10064;BME280;5071;52.360;13.134;2022-09-09T07:42:41;100735.00;;;17.84;82.43
10064;BME280;5071;52.360;13.134;2022-09-09T07:47:43;100736.59;;;18.10;83.57
10064;BME280;5071;52.360;13.134;2022-09-09T07:52:45;100734.03;;;18.07;80.43
10064;BME280;5071;52.360;13.134;2022-09-09T07:57:48;100745.34;;;18.15;81.65
10064;BME280;5071;52.360;13.134;2022-09-09T08:02:50;100752.69;;;17.90;80.63
10064;BME280;5071;52.360;13.134;2022-09-09T08:07:52;100742.97;;;18.28;79.14
10064;BME280;5071;52.360;13.134;2022-09-09T08:12:55;100745.63;;;18.49;78.93
10064;BME280;5071;52.360;13.134;2022-09-09T08:18:17;100746.91;;;18.81;77.84
10064;BME280;5071;52.360;13.134;2022-09-09T08:23:19;100746.94;;;18.40;77.83
10064;BME280;5071;52.360;13.134;2022-09-09T08:28:23;100746.13;;;18.38;78.02
10064;BME280;5071;52.360;13.134;2022-09-09T08:33:25;100752.47;;;18.56;78.93
10064;BME280;5071;52.360;13.134;2022-09-09T08:38:27;100763.25;;;18.35;79.45
10064;BME280;5071;52.360;13.134;2022-09-09T08:43:31;100755.41;;;18.70;79.63
10064;BME280;5071;52.360;13.134;2022-09-09T08:48:47;100760.09;;;18.46;78.41
10064;BME280;5071;52.360;13.134;2022-09-09T08:53:54;100765.00;;;18.57;77.79
10064;BME280;5071;52.360;13.134;2022-09-09T08:59:02;100756.94;;;18.76;77.22
10064;BME280;5071;52.360;13.134;2022-09-09T09:04:14;100763.38;;;19.30;75.01
10064;BME280;5071;52.360;13.134;2022-09-09T09:09:25;100766.34;;;19.43;73.80
10064;BME280;5071;52.360;13.134;2022-09-09T09:14:34;100768.56;;;19.71;72.23
10064;BME280;5071;52.360;13.134;2022-09-09T09:19:39;100764.72;;;20.12;72.08
10064;BME280;5071;52.360;13.134;2022-09-09T09:24:48;100769.94;;;21.64;65.29
10064;BME280;5071;52.360;13.134;2022-09-09T09:29:54;100771.13;;;23.50;58.20
10064;BME280;5071;52.360;13.134;2022-09-09T09:35:18;100757.59;;;27.63;46.41
10064;BME280;5071;52.360;13.134;2022-09-09T09:40:21;100752.94;;;28.28;45.09
10064;BME280;5071;52.360;13.134;2022-09-09T09:45:28;100747.00;;;27.15;47.27
10064;BME280;5071;52.360;13.134;2022-09-09T09:50:31;100759.19;;;22.82;57.49
10064;BME280;5071;52.360;13.134;2022-09-09T09:55:34;100754.59;;;24.08;55.68
10064;BME280;5071;52.360;13.134;2022-09-09T10:00:47;100760.88;;;23.95;57.89
10064;BME280;5071;52.360;13.134;2022-09-09T10:05:49;100762.16;;;25.44;52.02
10064;BME280;5071;52.360;13.134;2022-09-09T10:10:59;100765.19;;;26.00;51.43
10064;BME280;5071;52.360;13.134;2022-09-09T10:16:16;100753.22;;;30.46;40.49
10064;BME280;5071;52.360;13.134;2022-09-09T10:21:34;100759.41;;;28.48;44.28
10064;BME280;5071;52.360;13.134;2022-09-09T10:26:44;100757.78;;;30.75;40.15
10064;BME280;5071;52.360;13.134;2022-09-09T10:31:58;100751.97;;;28.29;42.93
10064;BME280;5071;52.360;13.134;2022-09-09T10:37:18;100753.22;;;30.56;40.45
10064;BME280;5071;52.360;13.134;2022-09-09T10:42:28;100752.84;;;30.41;38.78
10064;BME280;5071;52.360;13.134;2022-09-09T10:47:42;100758.56;;;29.60;39.84
10064;BME280;5071;52.360;13.134;2022-09-09T10:52:57;100764.50;;;28.53;42.13
10064;BME280;5071;52.360;13.134;2022-09-09T10:58:03;100744.19;;;26.71;46.24
10064;BME280;5071;52.360;13.134;2022-09-09T11:03:17;100746.13;;;26.47;47.70
10064;BME280;5071;52.360;13.134;2022-09-09T11:08:21;100744.47;;;24.62;52.84
10064;BME280;5071;52.360;13.134;2022-09-09T11:13:31;100737.34;;;25.48;50.99
10064;BME280;5071;52.360;13.134;2022-09-09T11:18:40;100739.63;;;25.05;52.77
10064;BME280;5071;52.360;13.134;2022-09-09T11:23:49;100737.28;;;24.49;53.19
10064;BME280;5071;52.360;13.134;2022-09-09T11:34:27;100739.44;;;25.08;49.91
10064;BME280;5071;52.360;13.134;2022-09-09T11:40:00;100725.59;;;25.24;47.46
10064;BME280;5071;52.360;13.134;2022-09-09T11:45:15;100731.25;;;24.58;50.22
10064;BME280;5071;52.360;13.134;2022-09-09T11:50:31;100723.09;;;23.79;52.82
10064;BME280;5071;52.360;13.134;2022-09-09T11:55:34;100712.84;;;23.16;54.24
10064;BME280;5071;52.360;13.134;2022-09-09T12:00:38;100716.06;;;22.94;54.85
10064;BME280;5071;52.360;13.134;2022-09-09T12:05:44;100708.03;;;23.06;56.14
10064;BME280;5071;52.360;13.134;2022-09-09T12:10:53;100694.00;;;23.14;53.66
10064;BME280;5071;52.360;13.134;2022-09-09T12:15:56;100689.78;;;22.96;54.71
10064;BME280;5071;52.360;13.134;2022-09-09T12:21:05;100688.63;;;22.85;55.92
10064;BME280;5071;52.360;13.134;2022-09-09T12:26:26;100694.63;;;23.05;55.47
10064;BME280;5071;52.360;13.134;2022-09-09T12:31:34;100687.69;;;23.28;56.46
10064;BME280;5071;52.360;13.134;2022-09-09T12:36:52;100687.47;;;23.04;54.84
10064;BME280;5071;52.360;13.134;2022-09-09T12:41:55;100693.03;;;23.15;54.19
10064;BME280;5071;52.360;13.134;2022-09-09T12:46:59;100698.13;;;23.20;55.51
10064;BME280;5071;52.360;13.134;2022-09-09T12:52:07;100693.44;;;22.95;54.36
10064;BME280;5071;52.360;13.134;2022-09-09T12:57:12;100699.19;;;22.76;56.15
10064;BME280;5071;52.360;13.134;2022-09-09T13:02:20;100710.19;;;22.73;57.00
10064;BME280;5071;52.360;13.134;2022-09-09T13:07:24;100714.34;;;22.49;56.06
10064;BME280;5071;52.360;13.134;2022-09-09T13:12:26;100705.09;;;22.39;56.31
10064;BME280;5071;52.360;13.134;2022-09-09T13:17:27;100707.16;;;23.47;53.68
10064;BME280;5071;52.360;13.134;2022-09-09T13:22:34;100684.44;;;24.41;49.86
10064;BME280;5071;52.360;13.134;2022-09-09T13:27:39;100669.53;;;24.86;49.90
10064;BME280;5071;52.360;13.134;2022-09-09T13:32:41;100665.44;;;24.41;50.26
10064;BME280;5071;52.360;13.134;2022-09-09T13:37:45;100674.50;;;24.92;49.45
10064;BME280;5071;52.360;13.134;2022-09-09T13:42:47;100678.25;;;25.39;48.97
10064;BME280;5071;52.360;13.134;2022-09-09T13:47:49;100670.34;;;26.07;46.74
10064;BME280;5071;52.360;13.134;2022-09-09T13:52:55;100676.75;;;25.35;48.18
10064;BME280;5071;52.360;13.134;2022-09-09T13:57:58;100663.75;;;24.90;49.32
10064;BME280;5071;52.360;13.134;2022-09-09T14:03:01;100676.75;;;25.35;47.97
10064;BME280;5071;52.360;13.134;2022-09-09T14:08:05;100673.59;;;25.52;48.06
10064;BME280;5071;52.360;13.134;2022-09-09T14:13:07;100669.59;;;23.68;52.07
10064;BME280;5071;52.360;13.134;2022-09-09T14:18:10;100664.78;;;23.19;54.20
10064;BME280;5071;52.360;13.134;2022-09-09T14:23:14;100659.03;;;22.82;56.41
10064;BME280;5071;52.360;13.134;2022-09-09T14:28:16;100657.91;;;22.86;55.74
10064;BME280;5071;52.360;13.134;2022-09-09T14:33:27;100669.44;;;23.03;55.51
10064;BME280;5071;52.360;13.134;2022-09-09T14:38:32;100670.91;;;23.36;53.37
10064;BME280;5071;52.360;13.134;2022-09-09T14:43:34;100672.75;;;23.75;52.73
10064;BME280;5071;52.360;13.134;2022-09-09T14:48:36;100681.22;;;23.71;53.11
10064;BME280;5071;52.360;13.134;2022-09-09T14:53:40;100681.78;;;23.21;54.08
10064;BME280;5071;52.360;13.134;2022-09-09T14:58:42;100676.59;;;23.18;55.32
10064;BME280;5071;52.360;13.134;2022-09-09T15:03:49;100681.09;;;23.32;55.09
10064;BME280;5071;52.360;13.134;2022-09-09T15:08:53;100672.81;;;23.21;55.54
10064;BME280;5071;52.360;13.134;2022-09-09T15:13:55;100662.78;;;23.08;55.21
10064;BME280;5071;52.360;13.134;2022-09-09T15:18:58;100652.84;;;22.95;55.19
10064;BME280;5071;52.360;13.134;2022-09-09T15:24:03;100648.84;;;23.00;55.17
10064;BME280;5071;52.360;13.134;2022-09-09T15:29:05;100646.41;;;23.24;53.68
10064;BME280;5071;52.360;13.134;2022-09-09T15:34:07;100633.25;;;23.58;51.75
10064;BME280;5071;52.360;13.134;2022-09-09T15:39:13;100626.72;;;23.48;51.51
10064;BME280;5071;52.360;13.134;2022-09-09T15:44:15;100623.88;;;23.37;52.25
10064;BME280;5071;52.360;13.134;2022-09-09T15:49:18;100626.38;;;23.40;52.97
10064;BME280;5071;52.360;13.134;2022-09-09T15:54:23;100636.41;;;22.98;53.05
10064;BME280;5071;52.360;13.134;2022-09-09T15:59:26;100629.25;;;22.82;54.51
10064;BME280;5071;52.360;13.134;2022-09-09T16:04:29;100625.41;;;22.86;55.94
10064;BME280;5071;52.360;13.134;2022-09-09T16:09:32;100645.81;;;23.19;54.75
10064;BME280;5071;52.360;13.134;2022-09-09T16:14:35;100663.91;;;23.19;54.77
10064;BME280;5071;52.360;13.134;2022-09-09T16:19:36;100669.16;;;23.35;55.56
10064;BME280;5071;52.360;13.134;2022-09-09T16:24:40;100678.72;;;23.40;55.45
10064;BME280;5071;52.360;13.134;2022-09-09T16:29:42;100671.94;;;23.20;55.33
10064;BME280;5071;52.360;13.134;2022-09-09T16:34:44;100681.03;;;23.19;55.42
10064;BME280;5071;52.360;13.134;2022-09-09T16:39:47;100669.34;;;23.19;55.49
10064;BME280;5071;52.360;13.134;2022-09-09T16:44:49;100669.41;;;22.90;57.13
10064;BME280;5071;52.360;13.134;2022-09-09T16:49:51;100675.59;;;22.78;57.06
10064;BME280;5071;52.360;13.134;2022-09-09T16:54:54;100667.88;;;22.57;59.06
10064;BME280;5071;52.360;13.134;2022-09-09T16:59:56;100658.44;;;22.36;59.35
10064;BME280;5071;52.360;13.134;2022-09-09T17:04:58;100647.94;;;22.01;59.38
10064;BME280;5071;52.360;13.134;2022-09-09T17:10:01;100653.53;;;21.53;61.19
10064;BME280;5071;52.360;13.134;2022-09-09T17:15:04;100665.19;;;21.38;62.73
10064;BME280;5071;52.360;13.134;2022-09-09T17:20:07;100665.50;;;20.85;64.50
10064;BME280;5071;52.360;13.134;2022-09-09T17:25:11;100667.63;;;20.47;67.33
10064;BME280;5071;52.360;13.134;2022-09-09T17:30:13;100657.63;;;20.15;70.27
10064;BME280;5071;52.360;13.134;2022-09-09T17:35:15;100661.97;;;19.85;70.15
10064;BME280;5071;52.360;13.134;2022-09-09T17:40:19;100659.59;;;19.78;68.43
10064;BME280;5071;52.360;13.134;2022-09-09T17:45:20;100661.56;;;19.75;68.78
10064;BME280;5071;52.360;13.134;2022-09-09T17:50:22;100682.06;;;19.60;69.08
10064;BME280;5071;52.360;13.134;2022-09-09T17:55:26;100694.28;;;19.48;68.73
10064;BME280;5071;52.360;13.134;2022-09-09T18:00:28;100685.47;;;19.27;69.60
10064;BME280;5071;52.360;13.134;2022-09-09T18:05:29;100682.16;;;19.03;72.03
10064;BME280;5071;52.360;13.134;2022-09-09T18:10:33;100681.53;;;18.79;72.29
10064;BME280;5071;52.360;13.134;2022-09-09T18:15:36;100692.47;;;18.55;71.75
10064;BME280;5071;52.360;13.134;2022-09-09T18:20:57;100695.31;;;18.32;73.62
10064;BME280;5071;52.360;13.134;2022-09-09T18:26:00;100702.75;;;18.06;75.52
10064;BME280;5071;52.360;13.134;2022-09-09T18:31:05;100707.47;;;17.79;76.85
10064;BME280;5071;52.360;13.134;2022-09-09T18:36:08;100722.19;;;17.48;78.54
10064;BME280;5071;52.360;13.134;2022-09-09T18:41:15;100739.06;;;17.52;77.34
10064;BME280;5071;52.360;13.134;2022-09-09T18:46:18;100740.94;;;17.49;77.62
10064;BME280;5071;52.360;13.134;2022-09-09T18:51:22;100744.41;;;17.52;77.32
10064;BME280;5071;52.360;13.134;2022-09-09T18:56:26;100744.91;;;17.39;77.84
10064;BME280;5071;52.360;13.134;2022-09-09T19:01:28;100754.56;;;17.43;78.96
10064;BME280;5071;52.360;13.134;2022-09-09T19:06:32;100752.97;;;17.39;79.17
10064;BME280;5071;52.360;13.134;2022-09-09T19:11:35;100755.47;;;17.22;79.76
10064;BME280;5071;52.360;13.134;2022-09-09T19:16:39;100761.19;;;17.13;80.75
10064;BME280;5071;52.360;13.134;2022-09-09T19:21:41;100759.31;;;17.15;79.64
10064;BME280;5071;52.360;13.134;2022-09-09T19:26:46;100767.91;;;17.23;81.00
10064;BME280;5071;52.360;13.134;2022-09-09T19:31:50;100772.06;;;17.32;81.45
10064;BME280;5071;52.360;13.134;2022-09-09T19:37:14;100774.13;;;17.25;80.80
10064;BME280;5071;52.360;13.134;2022-09-09T19:42:20;100771.56;;;17.22;80.77
10064;BME280;5071;52.360;13.134;2022-09-09T19:47:22;100778.78;;;17.20;81.86
10064;BME280;5071;52.360;13.134;2022-09-09T19:52:25;100776.81;;;17.01;81.59
10064;BME280;5071;52.360;13.134;2022-09-09T19:57:28;100777.94;;;16.96;81.51
10064;BME280;5071;52.360;13.134;2022-09-09T20:02:30;100771.56;;;16.75;80.77
10064;BME280;5071;52.360;13.134;2022-09-09T20:07:31;100784.25;;;16.69;80.51
10064;BME280;5071;52.360;13.134;2022-09-09T20:12:34;100791.00;;;16.56;79.69
10064;BME280;5071;52.360;13.134;2022-09-09T20:17:37;100791.22;;;16.50;79.65
10064;BME280;5071;52.360;13.134;2022-09-09T20:22:39;100787.09;;;16.40;78.73
10064;BME280;5071;52.360;13.134;2022-09-09T20:27:42;100787.34;;;16.33;78.92
10064;BME280;5071;52.360;13.134;2022-09-09T20:32:44;100797.66;;;16.19;78.63
10064;BME280;5071;52.360;13.134;2022-09-09T20:37:46;100793.97;;;15.97;79.69
10064;BME280;5071;52.360;13.134;2022-09-09T20:42:49;100788.91;;;15.87;79.52
10064;BME280;5071;52.360;13.134;2022-09-09T20:47:51;100773.63;;;15.63;80.65
10064;BME280;5071;52.360;13.134;2022-09-09T20:52:53;100752.44;;;15.57;80.83
10064;BME280;5071;52.360;13.134;2022-09-09T20:57:56;100751.22;;;15.39;81.84
10064;BME280;5071;52.360;13.134;2022-09-09T21:02:58;100750.44;;;15.35;82.08
10064;BME280;5071;52.360;13.134;2022-09-09T21:07:59;100755.66;;;15.40;82.89
10064;BME280;5071;52.360;13.134;2022-09-09T21:13:02;100746.81;;;15.09;82.06
10064;BME280;5071;52.360;13.134;2022-09-09T21:18:04;100747.56;;;14.85;83.45
10064;BME280;5071;52.360;13.134;2022-09-09T21:23:06;100751.22;;;14.81;84.64
10064;BME280;5071;52.360;13.134;2022-09-09T21:28:10;100741.00;;;14.65;85.13
10064;BME280;5071;52.360;13.134;2022-09-09T21:33:12;100744.72;;;14.60;85.94
10064;BME280;5071;52.360;13.134;2022-09-09T21:38:16;100744.84;;;14.55;86.26
10064;BME280;5071;52.360;13.134;2022-09-09T21:43:19;100752.91;;;14.53;86.42
10064;BME280;5071;52.360;13.134;2022-09-09T21:48:21;100755.56;;;14.53;86.65
10064;BME280;5071;52.360;13.134;2022-09-09T21:53:23;100760.16;;;14.48;86.75
10064;BME280;5071;52.360;13.134;2022-09-09T21:58:26;100752.28;;;14.44;86.81
10064;BME280;5071;52.360;13.134;2022-09-09T22:03:27;100761.13;;;14.46;87.69
10064;BME280;5071;52.360;13.134;2022-09-09T22:08:29;100752.84;;;14.55;87.02
10064;BME280;5071;52.360;13.134;2022-09-09T22:13:33;100760.88;;;14.55;87.00
10064;BME280;5071;52.360;13.134;2022-09-09T22:18:35;100767.13;;;14.54;87.07
10064;BME280;5071;52.360;13.134;2022-09-09T22:23:37;100761.81;;;14.52;87.38
10064;BME280;5071;52.360;13.134;2022-09-09T22:28:40;100763.88;;;14.43;86.92
10064;BME280;5071;52.360;13.134;2022-09-09T22:33:42;100761.47;;;14.33;87.60
10064;BME280;5071;52.360;13.134;2022-09-09T22:38:43;100761.56;;;14.30;88.31
10064;BME280;5071;52.360;13.134;2022-09-09T22:43:47;100772.31;;;14.27;88.31
10064;BME280;5071;52.360;13.134;2022-09-09T22:48:49;100773.97;;;14.31;88.62
10064;BME280;5071;52.360;13.134;2022-09-09T22:53:51;100764.31;;;14.27;89.01
10064;BME280;5071;52.360;13.134;2022-09-09T22:58:55;100767.03;;;14.24;88.89
10064;BME280;5071;52.360;13.134;2022-09-09T23:03:57;100764.13;;;14.00;88.90
10064;BME280;5071;52.360;13.134;2022-09-09T23:09:00;100762.09;;;13.76;89.46
10064;BME280;5071;52.360;13.134;2022-09-09T23:14:06;100755.84;;;13.77;90.75
10064;BME280;5071;52.360;13.134;2022-09-09T23:19:10;100751.59;;;13.68;90.84
10064;BME280;5071;52.360;13.134;2022-09-09T23:24:13;100754.69;;;13.51;91.12
10064;BME280;5071;52.360;13.134;2022-09-09T23:29:17;100758.44;;;13.44;92.02
10064;BME280;5071;52.360;13.134;2022-09-09T23:34:19;100764.72;;;13.40;92.00
10064;BME280;5071;52.360;13.134;2022-09-09T23:39:21;100765.91;;;13.27;93.13
10064;BME280;5071;52.360;13.134;2022-09-09T23:44:24;100760.31;;;13.39;93.28
10064;BME280;5071;52.360;13.134;2022-09-09T23:49:26;100752.94;;;13.50;93.57
10064;BME280;5071;52.360;13.134;2022-09-09T23:54:28;100750.16;;;13.55;93.75
10064;BME280;5071;52.360;13.134;2022-09-09T23:59:31;100750.38;;;13.46;93.47
